Time;durP1;ratioP1;P1;durP2;ratioP2;P2;SDS_P1;SDS_P2;PMS_P1;PMS_P2;Temp;Humidity;BMP_temperature;BMP_pressure;BME280_temperature;BME280_humidity;BME280_pressure;Samples;Min_cycle;Max_cycle;Signal;HPM_P1;HPM_P2
2023/07/12 00:00:43;;;;;;;2.78;2.28;;;;;;;;;;4974502;28;20667;-41
2023/07/12 00:03:25;;;;;;;3.20;2.00;;;;;;;;;;4974728;28;20256;-41
2023/07/12 00:05:53;;;;;;;3.80;2.70;;;;;;;;;;4974476;28;20211;-41
2023/07/12 00:08:25;;;;;;;3.13;2.45;;;;;;;;;;4973274;28;20667;-41
2023/07/12 00:10:54;;;;;;;3.03;2.22;;;;;;;;;;4974736;28;20261;-41
2023/07/12 00:13:23;;;;;;;8.15;2.38;;;;;;;;;;4974568;28;20218;-41
2023/07/12 00:15:52;;;;;;;4.65;2.70;;;;;;;;;;4977417;28;20237;-42
2023/07/12 00:18:25;;;;;;;3.80;2.40;;;;;;;;;;4978566;28;20214;-42
2023/07/12 00:20:53;;;;;;;5.13;2.42;;;;;;;;;;4978289;28;20364;-42
2023/07/12 00:23:20;;;;;;;3.53;2.33;;;;;;;;;;4978630;28;20214;-42
2023/07/12 00:25:48;;;;;;;3.50;2.30;;;;;;;;;;4978284;28;20207;-42
2023/07/12 00:28:21;;;;;;;5.15;2.10;;;;;;;;;;4976997;28;20672;-42
2023/07/12 00:30:49;;;;;;;3.35;2.10;;;;;;;;;;4978326;28;20619;-41
2023/07/12 00:33:18;;;;;;;2.90;1.98;;;;;;;;;;4977987;28;20710;-43
2023/07/12 00:35:46;;;;;;;4.40;2.45;;;;;;;;;;4978113;28;20318;-42
2023/07/12 00:38:17;;;;;;;3.20;2.40;;;;;;;;;;4976723;28;20203;-41
2023/07/12 00:40:53;;;;;;;3.38;2.28;;;;;;;;;;4978203;28;20230;-41
2023/07/12 00:43:34;;;;;;;4.97;2.70;;;;;;;;;;4977962;28;20203;-42
2023/07/12 00:46:03;;;;;;;5.57;2.50;;;;;;;;;;4977860;28;20218;-42
2023/07/12 00:48:30;;;;;;;3.13;2.20;;;;;;;;;;4976515;28;20207;-42
2023/07/12 00:50:57;;;;;;;4.03;3.00;;;;;;;;;;4977942;28;20202;-44
2023/07/12 00:53:28;;;;;;;7.80;2.33;;;;;;;;;;4976452;28;20207;-41
2023/07/12 00:55:56;;;;;;;3.72;2.20;;;;;;;;;;4960467;28;20306;-42
2023/07/12 00:58:26;;;;;;;2.72;2.40;;;;;;;;;;4976235;28;20559;-42
2023/07/12 01:00:54;;;;;;;4.88;2.35;;;;;;;;;;4976327;28;20664;-42
2023/07/12 01:03:22;;;;;;;3.83;2.50;;;;;;;;;;4977479;28;20238;-43
2023/07/12 01:05:50;;;;;;;3.25;2.15;;;;;;;;;;4976394;28;20215;-42
2023/07/12 01:08:17;;;;;;;3.85;2.10;;;;;;;;;;4976273;28;20214;-42
2023/07/12 01:10:45;;;;;;;4.00;2.28;;;;;;;;;;4977323;28;20269;-42
2023/07/12 01:13:12;;;;;;;3.03;2.25;;;;;;;;;;4977442;28;20202;-42
2023/07/12 01:15:39;;;;;;;2.95;2.47;;;;;;;;;;4977566;28;20227;-43
2023/07/12 01:18:07;;;;;;;4.55;2.35;;;;;;;;;;4977438;28;20203;-42
2023/07/12 01:20:40;;;;;;;4.65;2.80;;;;;;;;;;4977351;28;20203;-42
2023/07/12 01:23:09;;;;;;;4.35;2.72;;;;;;;;;;4976356;28;20249;-42
2023/07/12 01:25:38;;;;;;;6.35;2.67;;;;;;;;;;4976609;28;20301;-42
2023/07/12 01:28:06;;;;;;;5.13;2.70;;;;;;;;;;4976955;28;20683;-42
2023/07/12 01:30:36;;;;;;;5.40;2.92;;;;;;;;;;4976089;28;20197;-42
2023/07/12 01:33:03;;;;;;;3.75;2.42;;;;;;;;;;4976904;28;20207;-42
2023/07/12 01:35:31;;;;;;;4.35;2.80;;;;;;;;;;4977127;28;20237;-41
2023/07/12 01:37:59;;;;;;;4.38;2.90;;;;;;;;;;4976956;28;20203;-42
2023/07/12 01:40:26;;;;;;;4.15;2.78;;;;;;;;;;4975541;28;20615;-42
2023/07/12 01:42:53;;;;;;;3.30;2.50;;;;;;;;;;4975809;28;20281;-42
2023/07/12 01:45:20;;;;;;;4.32;2.30;;;;;;;;;;4975575;28;20217;-42
2023/07/12 01:47:48;;;;;;;5.05;2.45;;;;;;;;;;4975597;28;20613;-41
2023/07/12 01:50:15;;;;;;;5.47;2.20;;;;;;;;;;4975428;28;20563;-41
2023/07/12 01:52:42;;;;;;;3.80;2.45;;;;;;;;;;4976240;28;20249;-42
2023/07/12 01:55:09;;;;;;;7.47;2.53;;;;;;;;;;4976216;28;20261;-42
2023/07/12 01:57:37;;;;;;;3.65;2.50;;;;;;;;;;4976545;28;20213;-41
2023/07/12 02:00:05;;;;;;;6.22;2.83;;;;;;;;;;4975009;28;20203;-42
2023/07/12 02:02:42;;;;;;;3.95;2.78;;;;;;;;;;4976097;28;20206;-42
2023/07/12 02:05:10;;;;;;;5.10;2.30;;;;;;;;;;4976387;28;20195;-42
2023/07/12 02:07:37;;;;;;;5.50;2.60;;;;;;;;;;4976019;28;20210;-41
2023/07/12 02:10:15;;;;;;;4.35;2.72;;;;;;;;;;4976255;28;20202;-42
2023/07/12 02:12:43;;;;;;;2.97;2.55;;;;;;;;;;4976059;28;20265;-41
2023/07/12 02:15:12;;;;;;;6.90;2.67;;;;;;;;;;4975880;28;20226;-41
2023/07/12 02:17:39;;;;;;;5.07;2.75;;;;;;;;;;4974550;28;20230;-41
2023/07/12 02:20:08;;;;;;;11.63;2.53;;;;;;;;;;4975825;28;20206;-41
2023/07/12 02:22:36;;;;;;;7.47;2.90;;;;;;;;;;4975748;28;20570;-42
2023/07/12 02:25:04;;;;;;;11.25;2.90;;;;;;;;;;4975684;28;20544;-42
2023/07/12 02:27:34;;;;;;;7.97;2.70;;;;;;;;;;4974874;28;20198;-41
2023/07/12 02:30:01;;;;;;;6.75;2.42;;;;;;;;;;4975605;28;20600;-41
2023/07/12 02:32:28;;;;;;;6.78;2.30;;;;;;;;;;4975846;28;20215;-41
2023/07/12 02:34:56;;;;;;;8.98;2.20;;;;;;;;;;4975410;28;20293;-42
2023/07/12 02:37:23;;;;;;;5.70;2.90;;;;;;;;;;4975013;28;20215;-42
2023/07/12 02:39:50;;;;;;;5.47;2.63;;;;;;;;;;4974459;28;20213;-41
2023/07/12 02:42:17;;;;;;;3.85;2.90;;;;;;;;;;4974284;28;20257;-41
2023/07/12 02:44:44;;;;;;;3.90;2.67;;;;;;;;;;4975370;28;20604;-41
2023/07/12 02:47:11;;;;;;;7.47;3.10;;;;;;;;;;4975298;28;20214;-42
2023/07/12 02:49:39;;;;;;;7.68;3.08;;;;;;;;;;4975423;28;20210;-41
2023/07/12 02:52:07;;;;;;;6.38;2.90;;;;;;;;;;4975743;28;20550;-41
2023/07/12 02:54:35;;;;;;;4.50;3.25;;;;;;;;;;4975411;28;20679;-41
2023/07/12 02:57:03;;;;;;;7.80;2.90;;;;;;;;;;4975347;28;20242;-41
2023/07/12 02:59:31;;;;;;;5.97;4.20;;;;;;;;;;4975299;28;20298;-41
2023/07/12 03:01:58;;;;;;;5.97;3.50;;;;;;;;;;4975303;28;20203;-40
2023/07/12 03:04:26;;;;;;;5.15;3.42;;;;;;;;;;4975156;28;20248;-41
2023/07/12 03:06:53;;;;;;;5.85;2.67;;;;;;;;;;4975242;28;20234;-41
2023/07/12 03:09:20;;;;;;;6.03;3.33;;;;;;;;;;4975233;28;20208;-41
2023/07/12 03:11:48;;;;;;;5.90;2.83;;;;;;;;;;4975651;28;20199;-41
2023/07/12 03:14:16;;;;;;;6.53;2.88;;;;;;;;;;4975691;28;20621;-41
2023/07/12 03:16:43;;;;;;;7.03;2.92;;;;;;;;;;4975292;28;20234;-41
2023/07/12 03:19:11;;;;;;;6.03;3.00;;;;;;;;;;4975248;28;20195;-38
2023/07/12 03:21:38;;;;;;;6.05;3.28;;;;;;;;;;4975082;28;20203;-41
2023/07/12 03:24:06;;;;;;;7.03;3.25;;;;;;;;;;4974956;28;20230;-42
2023/07/12 03:26:34;;;;;;;6.53;2.67;;;;;;;;;;4974952;28;20698;-40
2023/07/12 03:29:03;;;;;;;8.65;3.38;;;;;;;;;;4974887;28;20206;-42
2023/07/12 03:31:30;;;;;;;3.75;2.38;;;;;;;;;;4974797;28;20202;-40
2023/07/12 03:33:58;;;;;;;5.50;3.40;;;;;;;;;;4974758;28;20210;-40
2023/07/12 03:36:30;;;;;;;11.23;3.60;;;;;;;;;;4972437;28;20234;-40
2023/07/12 03:38:59;;;;;;;9.63;3.10;;;;;;;;;;4963897;28;20207;-44
2023/07/12 03:41:27;;;;;;;8.68;3.40;;;;;;;;;;4955349;28;20203;-41
2023/07/12 03:43:54;;;;;;;9.85;3.15;;;;;;;;;;4955318;28;20577;-42
2023/07/12 03:46:21;;;;;;;7.78;3.08;;;;;;;;;;4958330;28;20215;-42
2023/07/12 03:48:48;;;;;;;9.13;3.55;;;;;;;;;;4963862;28;20263;-42
2023/07/12 03:51:17;;;;;;;7.90;3.45;;;;;;;;;;4955450;28;20211;-42
2023/07/12 03:53:45;;;;;;;4.85;3.25;;;;;;;;;;4956256;28;20207;-43
2023/07/12 03:56:12;;;;;;;8.32;3.53;;;;;;;;;;4974631;28;20239;-41
2023/07/12 03:58:40;;;;;;;6.05;3.47;;;;;;;;;;4974849;28;20261;-41
2023/07/12 04:01:09;;;;;;;7.72;3.22;;;;;;;;;;4974496;28;20664;-40
2023/07/12 04:03:37;;;;;;;10.73;3.15;;;;;;;;;;4974763;28;20243;-42
2023/07/12 04:06:06;;;;;;;9.55;3.95;;;;;;;;;;4974458;28;20402;-41
2023/07/12 04:08:33;;;;;;;7.30;3.67;;;;;;;;;;4969650;28;20227;-40
2023/07/12 04:11:02;;;;;;;5.80;3.53;;;;;;;;;;4973811;28;20227;-41
2023/07/12 04:13:29;;;;;;;8.57;4.50;;;;;;;;;;4961867;28;20586;-39
2023/07/12 04:15:59;;;;;;;14.75;4.88;;;;;;;;;;4962032;28;20218;-39
2023/07/12 04:18:27;;;;;;;6.35;3.78;;;;;;;;;;4962274;28;20235;-40
2023/07/12 04:20:58;;;;;;;5.38;3.80;;;;;;;;;;4973320;28;20289;-39
2023/07/12 04:23:26;;;;;;;11.32;4.35;;;;;;;;;;4972933;28;20230;-40
2023/07/12 04:26:01;;;;;;;9.10;4.50;;;;;;;;;;4973279;28;20231;-41
2023/07/12 04:28:29;;;;;;;8.98;4.40;;;;;;;;;;4973751;28;20225;-43
2023/07/12 04:31:02;;;;;;;5.35;4.10;;;;;;;;;;4966689;28;20279;-41
2023/07/12 04:33:30;;;;;;;6.15;4.00;;;;;;;;;;4954116;28;20318;-43
2023/07/12 04:35:57;;;;;;;9.32;4.50;;;;;;;;;;4968879;28;20238;-41
2023/07/12 04:38:24;;;;;;;5.28;3.97;;;;;;;;;;4973480;28;20253;-41
2023/07/12 04:40:53;;;;;;;7.53;4.45;;;;;;;;;;4973557;28;20223;-41
2023/07/12 04:43:20;;;;;;;7.28;4.20;;;;;;;;;;4973377;28;20218;-41
2023/07/12 04:45:48;;;;;;;5.47;4.18;;;;;;;;;;4973691;28;20296;-42
2023/07/12 04:48:15;;;;;;;5.35;4.45;;;;;;;;;;4973554;28;20233;-43
2023/07/12 04:50:43;;;;;;;9.23;4.60;;;;;;;;;;4973507;28;20226;-42
2023/07/12 04:53:12;;;;;;;7.45;5.10;;;;;;;;;;4972119;28;20250;-41
2023/07/12 04:55:39;;;;;;;6.55;4.88;;;;;;;;;;4954321;28;20230;-40
2023/07/12 04:58:07;;;;;;;9.80;4.47;;;;;;;;;;4954164;28;20254;-41
2023/07/12 05:00:34;;;;;;;9.70;5.47;;;;;;;;;;4963795;28;20218;-41
2023/07/12 05:03:01;;;;;;;8.70;5.18;;;;;;;;;;4977005;28;20611;-41
2023/07/12 05:05:29;;;;;;;8.25;4.25;;;;;;;;;;4976684;28;20309;-41
2023/07/12 05:07:56;;;;;;;4.15;3.10;;;;;;;;;;4976624;28;20707;-41
2023/07/12 05:10:23;;;;;;;7.45;3.95;;;;;;;;;;4976415;28;20223;-42
2023/07/12 05:12:51;;;;;;;5.38;3.83;;;;;;;;;;4976589;28;20241;-40
2023/07/12 05:15:18;;;;;;;6.40;3.90;;;;;;;;;;4976161;28;20226;-39
2023/07/12 05:17:45;;;;;;;5.22;3.38;;;;;;;;;;4975497;28;20297;-39
2023/07/12 05:20:13;;;;;;;4.93;2.83;;;;;;;;;;4975899;28;20241;-39
2023/07/12 05:22:41;;;;;;;4.60;3.05;;;;;;;;;;4975879;28;20242;-42
2023/07/12 05:25:09;;;;;;;6.15;3.15;;;;;;;;;;4975538;28;20238;-39
2023/07/12 05:27:36;;;;;;;4.05;2.35;;;;;;;;;;4976294;28;20227;-40
2023/07/12 05:30:04;;;;;;;4.20;2.80;;;;;;;;;;4976173;28;20737;-38
2023/07/12 05:32:31;;;;;;;3.10;2.50;;;;;;;;;;4975937;28;20211;-38
2023/07/12 05:34:58;;;;;;;6.80;4.22;;;;;;;;;;4977205;28;20198;-38
2023/07/12 05:37:25;;;;;;;4.68;3.40;;;;;;;;;;4976800;28;20222;-38
2023/07/12 05:39:58;;;;;;;3.60;2.58;;;;;;;;;;4976883;28;20210;-38
2023/07/12 05:42:25;;;;;;;3.95;2.90;;;;;;;;;;4977146;28;20292;-38
2023/07/12 05:44:52;;;;;;;3.88;2.25;;;;;;;;;;4976936;28;20198;-38
2023/07/12 05:47:19;;;;;;;3.30;2.33;;;;;;;;;;4977143;28;20217;-38
2023/07/12 05:49:46;;;;;;;4.13;2.70;;;;;;;;;;4976887;28;20679;-39
2023/07/12 05:52:13;;;;;;;4.30;2.78;;;;;;;;;;4976673;28;20214;-38
2023/07/12 05:54:41;;;;;;;3.97;2.60;;;;;;;;;;4976721;28;20207;-38
2023/07/12 05:57:08;;;;;;;3.85;2.67;;;;;;;;;;4976726;28;20257;-39
2023/07/12 05:59:35;;;;;;;4.15;2.75;;;;;;;;;;4976193;28;20195;-39
2023/07/12 06:02:03;;;;;;;4.25;2.90;;;;;;;;;;4976087;28;20202;-38
2023/07/12 06:04:30;;;;;;;4.15;2.90;;;;;;;;;;4976228;28;20230;-38
2023/07/12 06:06:57;;;;;;;3.83;2.72;;;;;;;;;;4976026;28;20211;-38
2023/07/12 06:09:25;;;;;;;3.78;2.72;;;;;;;;;;4976120;28;20229;-39
2023/07/12 06:11:52;;;;;;;4.53;2.78;;;;;;;;;;4971680;28;20658;-38
2023/07/12 06:14:19;;;;;;;2.95;2.50;;;;;;;;;;4973115;28;20206;-37
2023/07/12 06:16:46;;;;;;;3.25;2.42;;;;;;;;;;4975947;28;20226;-39
2023/07/12 06:19:14;;;;;;;4.05;2.63;;;;;;;;;;4975218;28;20660;-39
2023/07/12 06:21:41;;;;;;;3.67;2.58;;;;;;;;;;4975369;28;20207;-39
2023/07/12 06:24:08;;;;;;;4.97;2.70;;;;;;;;;;4975535;28;20682;-38
2023/07/12 06:26:35;;;;;;;6.25;2.75;;;;;;;;;;4975101;28;20555;-39
2023/07/12 06:29:03;;;;;;;3.58;2.88;;;;;;;;;;4975629;28;20195;-39
2023/07/12 06:31:30;;;;;;;3.33;2.42;;;;;;;;;;4975627;28;20603;-39
2023/07/12 06:34:00;;;;;;;2.83;2.38;;;;;;;;;;4975535;28;20203;-38
2023/07/12 06:36:28;;;;;;;3.22;2.38;;;;;;;;;;4972663;28;20695;-39
2023/07/12 06:38:55;;;;;;;3.20;2.42;;;;;;;;;;4975653;28;20202;-39
2023/07/12 06:41:22;;;;;;;3.10;2.05;;;;;;;;;;4975370;28;20246;-38
2023/07/12 06:43:50;;;;;;;3.72;2.45;;;;;;;;;;4975392;28;20203;-38
2023/07/12 06:46:17;;;;;;;5.40;2.53;;;;;;;;;;4974928;28;20202;-38
2023/07/12 06:48:45;;;;;;;3.25;2.20;;;;;;;;;;4975094;28;20194;-38
2023/07/12 06:51:12;;;;;;;3.20;2.47;;;;;;;;;;4974830;28;20596;-38
2023/07/12 06:53:40;;;;;;;3.05;2.35;;;;;;;;;;4973152;28;20203;-38
2023/07/12 06:56:06;;;;;;;3.90;2.50;;;;;;;;;;4972315;28;20714;-37
2023/07/12 06:58:34;;;;;;;3.38;2.25;;;;;;;;;;4975365;28;20663;-37
2023/07/12 07:01:07;;;;;;;2.85;1.98;;;;;;;;;;4974377;28;20199;-38
2023/07/12 07:03:35;;;;;;;3.67;1.88;;;;;;;;;;4972883;28;20237;-37
2023/07/12 07:06:04;;;;;;;2.75;2.00;;;;;;;;;;4974668;28;20199;-38
2023/07/12 07:08:31;;;;;;;2.83;1.90;;;;;;;;;;4972113;28;20195;-37
2023/07/12 07:11:00;;;;;;;4.15;1.98;;;;;;;;;;4974549;28;20199;-37
2023/07/12 07:13:28;;;;;;;3.88;1.95;;;;;;;;;;4974256;28;20206;-37
2023/07/12 07:15:56;;;;;;;2.40;1.90;;;;;;;;;;4974440;28;20199;-36
2023/07/12 07:18:24;;;;;;;2.60;2.00;;;;;;;;;;4974871;28;20223;-37
2023/07/12 07:20:52;;;;;;;2.08;1.70;;;;;;;;;;4974550;28;20203;-37
2023/07/12 07:23:19;;;;;;;3.08;1.80;;;;;;;;;;4974102;28;20872;-37
2023/07/12 07:25:46;;;;;;;2.33;1.90;;;;;;;;;;4970990;28;20238;-38
2023/07/12 07:28:14;;;;;;;4.53;1.95;;;;;;;;;;4974621;28;20540;-37
2023/07/12 07:30:41;;;;;;;2.35;1.80;;;;;;;;;;4974961;28;20207;-38
2023/07/12 07:33:08;;;;;;;2.30;1.88;;;;;;;;;;4974042;28;20199;-38
2023/07/12 07:35:36;;;;;;;2.15;1.55;;;;;;;;;;4973295;28;20198;-38
2023/07/12 07:38:04;;;;;;;2.03;1.60;;;;;;;;;;4973964;28;20230;-38
2023/07/12 07:40:31;;;;;;;2.25;1.48;;;;;;;;;;4974317;28;20595;-38
2023/07/12 07:42:58;;;;;;;2.10;1.70;;;;;;;;;;4974338;28;20202;-38
2023/07/12 07:45:25;;;;;;;2.95;1.80;;;;;;;;;;4971746;28;20659;-38
2023/07/12 07:47:52;;;;;;;2.00;1.58;;;;;;;;;;4973870;28;20225;-38
2023/07/12 07:50:20;;;;;;;1.77;1.33;;;;;;;;;;4970733;28;20302;-38
2023/07/12 07:52:48;;;;;;;2.33;1.77;;;;;;;;;;4973199;28;20206;-39
2023/07/12 07:55:15;;;;;;;2.60;1.67;;;;;;;;;;4973111;28;20207;-37
2023/07/12 07:57:42;;;;;;;2.30;1.63;;;;;;;;;;4973155;28;20222;-38
2023/07/12 08:00:11;;;;;;;2.28;1.70;;;;;;;;;;4972830;28;20218;-38
2023/07/12 08:02:39;;;;;;;2.80;1.73;;;;;;;;;;4971467;28;20194;-38
2023/07/12 08:05:07;;;;;;;3.22;1.85;;;;;;;;;;4973289;28;20198;-38
2023/07/12 08:07:42;;;;;;;3.35;1.70;;;;;;;;;;4973130;28;20218;-37
2023/07/12 08:10:11;;;;;;;2.95;1.70;;;;;;;;;;4972607;28;20659;-38
2023/07/12 08:12:39;;;;;;;2.65;1.75;;;;;;;;;;4972702;28;20191;-39
2023/07/12 08:15:07;;;;;;;1.40;1.27;;;;;;;;;;4973000;28;20249;-38
2023/07/12 08:17:35;;;;;;;3.00;1.60;;;;;;;;;;4972803;28;20218;-38
2023/07/12 08:20:04;;;;;;;3.17;1.48;;;;;;;;;;4970025;28;20253;-39
2023/07/12 08:22:32;;;;;;;1.90;1.48;;;;;;;;;;4972873;28;20600;-38
2023/07/12 08:24:59;;;;;;;1.73;1.30;;;;;;;;;;4972877;28;20205;-39
2023/07/12 08:27:26;;;;;;;1.90;1.52;;;;;;;;;;4970012;28;20631;-38
2023/07/12 08:29:53;;;;;;;1.98;1.48;;;;;;;;;;4971589;28;20205;-38
2023/07/12 08:32:21;;;;;;;2.63;1.60;;;;;;;;;;4972831;28;20206;-38
2023/07/12 08:34:48;;;;;;;2.42;1.50;;;;;;;;;;4970291;28;20203;-38
2023/07/12 08:37:15;;;;;;;2.00;1.50;;;;;;;;;;4977389;28;20234;-38
2023/07/12 08:39:42;;;;;;;2.08;1.50;;;;;;;;;;4977227;28;20199;-38
2023/07/12 08:42:12;;;;;;;2.85;1.65;;;;;;;;;;4977368;28;20195;-38
2023/07/12 08:44:39;;;;;;;2.15;1.63;;;;;;;;;;4975855;28;20222;-38
2023/07/12 08:47:18;;;;;;;2.25;1.40;;;;;;;;;;4975979;28;20215;-38
2023/07/12 08:49:45;;;;;;;4.95;1.52;;;;;;;;;;4976231;28;20190;-38
2023/07/12 08:52:16;;;;;;;1.50;1.30;;;;;;;;;;4973009;28;20222;-38
2023/07/12 08:54:44;;;;;;;2.42;1.70;;;;;;;;;;4976257;28;20274;-38
2023/07/12 08:57:11;;;;;;;2.65;1.90;;;;;;;;;;4976645;28;20234;-38
2023/07/12 08:59:38;;;;;;;2.30;1.50;;;;;;;;;;4973890;28;20199;-40
2023/07/12 09:02:16;;;;;;;1.95;1.30;;;;;;;;;;4972580;28;20215;-38
2023/07/12 09:04:43;;;;;;;2.95;1.23;;;;;;;;;;4972133;28;20302;-38
2023/07/12 09:07:10;;;;;;;1.70;1.30;;;;;;;;;;4967521;28;20281;-38
2023/07/12 09:09:38;;;;;;;2.67;1.83;;;;;;;;;;4970298;28;20652;-38
2023/07/12 09:12:21;;;;;;;2.13;1.65;;;;;;;;;;4970278;28;20226;-38
2023/07/12 09:14:53;;;;;;;2.83;2.20;;;;;;;;;;4964246;28;20231;-38
2023/07/12 09:17:27;;;;;;;2.20;1.58;;;;;;;;;;4961953;28;20269;-39
2023/07/12 09:19:54;;;;;;;1.80;1.52;;;;;;;;;;4976284;28;20227;-39
2023/07/12 09:22:22;;;;;;;2.22;1.42;;;;;;;;;;4975009;28;20230;-38
2023/07/12 09:24:52;;;;;;;3.47;1.60;;;;;;;;;;4975235;28;20222;-37
2023/07/12 09:27:26;;;;;;;2.38;1.90;;;;;;;;;;4974863;28;20233;-38
2023/07/12 09:30:06;;;;;;;2.50;1.48;;;;;;;;;;4975425;28;20230;-38
2023/07/12 09:32:35;;;;;;;2.13;1.80;;;;;;;;;;4975869;28;20222;-38
2023/07/12 09:35:21;;;;;;;1.98;1.65;;;;;;;;;;4973985;28;20230;-38
2023/07/12 09:37:57;;;;;;;3.30;1.50;;;;;;;;;;4963597;28;20238;-38
2023/07/12 09:40:24;;;;;;;2.83;1.75;;;;;;;;;;4975945;28;20223;-38
2023/07/12 09:42:56;;;;;;;4.28;1.77;;;;;;;;;;4975358;28;20226;-38
2023/07/12 09:45:28;;;;;;;2.70;1.65;;;;;;;;;;4974721;28;20270;-38
2023/07/12 09:48:26;;;;;;;4.30;1.80;;;;;;;;;;4972638;28;20226;-38
2023/07/12 09:51:04;;;;;;;2.33;1.60;;;;;;;;;;4974676;28;20183;-39
2023/07/12 09:53:35;;;;;;;1.73;1.50;;;;;;;;;;4974778;28;20253;-37
2023/07/12 09:56:15;;;;;;;3.00;1.88;;;;;;;;;;4973569;28;20584;-37
2023/07/12 09:59:04;;;;;;;2.05;1.55;;;;;;;;;;4974643;28;20257;-37
2023/07/12 10:01:45;;;;;;;4.45;1.50;;;;;;;;;;4976626;28;20202;-36
2023/07/12 10:04:24;;;;;;;2.35;1.63;;;;;;;;;;4976551;28;20239;-37
2023/07/12 10:06:51;;;;;;;1.63;1.48;;;;;;;;;;4976749;28;20202;-37
2023/07/12 10:09:32;;;;;;;3.33;1.77;;;;;;;;;;4976506;28;20671;-36
2023/07/12 10:12:18;;;;;;;1.90;1.50;;;;;;;;;;4976602;28;20209;-37
2023/07/12 10:14:46;;;;;;;1.83;1.30;;;;;;;;;;4976217;28;20207;-37
2023/07/12 10:17:21;;;;;;;2.65;1.58;;;;;;;;;;4975118;28;20259;-37
2023/07/12 10:19:53;;;;;;;3.10;1.92;;;;;;;;;;4975036;28;20629;-38
2023/07/12 10:22:34;;;;;;;3.28;1.58;;;;;;;;;;4976417;28;20209;-36
2023/07/12 10:25:06;;;;;;;2.13;1.73;;;;;;;;;;4974858;28;20199;-37
2023/07/12 10:27:37;;;;;;;3.55;1.65;;;;;;;;;;4974938;28;20660;-37
2023/07/12 10:30:10;;;;;;;2.75;1.80;;;;;;;;;;4975971;28;20203;-37
2023/07/12 10:33:00;;;;;;;1.92;1.63;;;;;;;;;;4974858;28;20210;-37
2023/07/12 10:35:42;;;;;;;2.38;1.70;;;;;;;;;;4975769;28;20203;-37
2023/07/12 10:38:20;;;;;;;2.47;1.95;;;;;;;;;;4976039;28;20314;-37
2023/07/12 10:40:52;;;;;;;1.70;1.60;;;;;;;;;;4975674;28;20557;-37
2023/07/12 10:43:28;;;;;;;2.33;1.60;;;;;;;;;;4974331;28;20269;-37
2023/07/12 10:46:03;;;;;;;2.45;1.65;;;;;;;;;;4974739;28;20238;-36
2023/07/12 10:48:30;;;;;;;2.85;1.80;;;;;;;;;;4975697;28;20202;-37
2023/07/12 10:51:24;;;;;;;2.33;1.55;;;;;;;;;;4974494;28;20261;-37
2023/07/12 10:53:54;;;;;;;2.25;1.77;;;;;;;;;;4972472;28;20199;-38
2023/07/12 10:56:27;;;;;;;1.65;1.23;;;;;;;;;;4973962;28;20214;-37
2023/07/12 10:58:59;;;;;;;1.90;1.60;;;;;;;;;;4973843;28;20222;-36
2023/07/12 11:01:42;;;;;;;2.30;1.75;;;;;;;;;;4974807;28;20201;-37
2023/07/12 11:04:10;;;;;;;2.58;1.70;;;;;;;;;;4974739;28;20226;-37
2023/07/12 11:07:14;;;;;;;2.10;1.60;;;;;;;;;;4972910;28;20195;-37
2023/07/12 11:09:44;;;;;;;2.53;1.50;;;;;;;;;;4934153;29;20669;-37
2023/07/12 11:12:14;;;;;;;3.85;2.03;;;;;;;;;;4965872;28;20230;-38
2023/07/12 11:14:44;;;;;;;2.72;1.90;;;;;;;;;;4974771;28;20195;-37
2023/07/12 11:17:14;;;;;;;2.38;1.75;;;;;;;;;;4974475;28;20199;-37
2023/07/12 11:19:44;;;;;;;3.05;1.70;;;;;;;;;;4974648;28;20205;-37
2023/07/12 11:22:22;;;;;;;2.70;2.00;;;;;;;;;;4974556;28;20203;-36
2023/07/12 11:25:21;;;;;;;2.55;1.95;;;;;;;;;;4973838;28;20199;-39
2023/07/12 11:27:56;;;;;;;2.55;1.70;;;;;;;;;;4948034;28;20261;-37
2023/07/12 11:30:39;;;;;;;1.92;1.60;;;;;;;;;;4968061;28;20230;-37
2023/07/12 11:33:15;;;;;;;2.42;1.77;;;;;;;;;;4973921;28;20226;-37
2023/07/12 11:35:47;;;;;;;4.25;1.52;;;;;;;;;;4973797;28;20662;-37
2023/07/12 11:38:29;;;;;;;2.58;1.85;;;;;;;;;;4972579;28;20246;-37
2023/07/12 11:40:57;;;;;;;2.30;1.80;;;;;;;;;;4973335;28;20227;-38
2023/07/12 11:43:25;;;;;;;2.53;1.70;;;;;;;;;;4972758;28;20231;-39
2023/07/12 11:45:55;;;;;;;4.60;1.80;;;;;;;;;;4972984;28;20222;-38
2023/07/12 11:48:24;;;;;;;1.95;1.60;;;;;;;;;;4971442;28;20321;-37
2023/07/12 11:50:52;;;;;;;3.08;2.03;;;;;;;;;;4970574;28;20721;-40
2023/07/12 11:53:20;;;;;;;2.30;1.98;;;;;;;;;;4971659;28;20218;-38
2023/07/12 11:55:47;;;;;;;1.80;1.58;;;;;;;;;;4973500;28;20219;-38
2023/07/12 11:58:20;;;;;;;2.20;1.80;;;;;;;;;;4971941;28;20862;-38
2023/07/12 12:00:48;;;;;;;4.03;1.90;;;;;;;;;;4971433;28;20215;-39
2023/07/12 12:03:17;;;;;;;2.83;2.00;;;;;;;;;;4971719;28;20246;-38
2023/07/12 12:05:46;;;;;;;2.70;2.00;;;;;;;;;;4973124;28;20221;-37
2023/07/12 12:08:18;;;;;;;2.20;1.60;;;;;;;;;;4969665;28;20219;-37
2023/07/12 12:10:46;;;;;;;3.15;1.70;;;;;;;;;;4976798;28;20301;-37
2023/07/12 12:13:19;;;;;;;2.20;1.83;;;;;;;;;;4976086;28;20225;-37
2023/07/12 12:15:50;;;;;;;4.78;1.92;;;;;;;;;;4977562;28;20241;-38
2023/07/12 12:18:20;;;;;;;2.38;1.73;;;;;;;;;;4977939;28;20238;-37
2023/07/12 12:21:00;;;;;;;2.47;1.75;;;;;;;;;;4977403;28;20245;-37
2023/07/12 12:23:34;;;;;;;2.10;1.73;;;;;;;;;;4978193;28;20221;-37
2023/07/12 12:26:05;;;;;;;2.10;1.60;;;;;;;;;;4971380;28;20230;-36
2023/07/12 12:28:43;;;;;;;2.40;1.60;;;;;;;;;;4959909;28;20231;-38
2023/07/12 12:31:13;;;;;;;2.65;2.20;;;;;;;;;;4962149;28;20217;-37
2023/07/12 12:34:14;;;;;;;2.63;2.10;;;;;;;;;;4968622;28;20222;-37
2023/07/12 12:37:18;;;;;;;3.33;1.90;;;;;;;;;;4976903;28;20234;-37
2023/07/12 12:39:57;;;;;;;3.75;2.00;;;;;;;;;;4974395;28;20234;-41
2023/07/12 12:42:26;;;;;;;4.15;1.95;;;;;;;;;;4977190;28;20234;-37
2023/07/12 12:44:55;;;;;;;2.58;1.70;;;;;;;;;;4976538;28;20226;-38
2023/07/12 12:47:26;;;;;;;2.00;1.70;;;;;;;;;;4976632;28;20787;-38
2023/07/12 12:49:53;;;;;;;2.90;2.10;;;;;;;;;;4976809;28;20726;-39
2023/07/12 12:52:32;;;;;;;2.42;1.88;;;;;;;;;;4976847;28;20229;-37
2023/07/12 12:55:08;;;;;;;5.13;1.70;;;;;;;;;;4976631;28;20229;-37
2023/07/12 12:57:43;;;;;;;2.25;1.77;;;;;;;;;;4976929;28;20226;-37
2023/07/12 13:00:21;;;;;;;1.75;1.40;;;;;;;;;;4976714;28;20229;-37
2023/07/12 13:02:53;;;;;;;2.15;1.50;;;;;;;;;;4976504;28;20400;-38
2023/07/12 13:05:25;;;;;;;2.67;1.42;;;;;;;;;;4976701;28;20231;-37
2023/07/12 13:07:56;;;;;;;2.22;1.60;;;;;;;;;;4976693;28;20301;-38
2023/07/12 13:10:43;;;;;;;2.50;1.63;;;;;;;;;;4976780;28;20241;-38
2023/07/12 13:13:15;;;;;;;2.50;1.80;;;;;;;;;;4975967;28;20255;-38
2023/07/12 13:15:47;;;;;;;2.85;1.70;;;;;;;;;;4976018;28;20230;-38
2023/07/12 13:18:17;;;;;;;2.05;1.73;;;;;;;;;;4975380;28;20230;-38
2023/07/12 13:21:04;;;;;;;3.08;2.00;;;;;;;;;;4974488;28;20233;-41
2023/07/12 13:23:32;;;;;;;2.45;1.77;;;;;;;;;;4969724;28;20703;-39
2023/07/12 13:26:02;;;;;;;3.03;1.80;;;;;;;;;;4975769;28;20234;-39
2023/07/12 13:28:29;;;;;;;2.92;1.92;;;;;;;;;;4964671;28;20253;-39
2023/07/12 13:30:56;;;;;;;2.42;1.85;;;;;;;;;;4974404;28;20222;-39
2023/07/12 13:33:24;;;;;;;2.20;1.80;;;;;;;;;;4974565;28;20230;-38
2023/07/12 13:35:52;;;;;;;3.58;2.55;;;;;;;;;;4972696;28;20714;-40
2023/07/12 13:38:22;;;;;;;2.67;1.80;;;;;;;;;;4975602;28;20683;-38
2023/07/12 13:40:52;;;;;;;4.38;2.80;;;;;;;;;;4975276;28;20219;-39
2023/07/12 13:43:22;;;;;;;27.80;21.55;;;;;;;;;;4974909;28;20237;-39
2023/07/12 13:45:53;;;;;;;3.42;2.80;;;;;;;;;;4973343;28;20629;-38
2023/07/12 13:48:22;;;;;;;39.35;26.20;;;;;;;;;;4975079;28;20222;-39
2023/07/12 13:50:49;;;;;;;44.15;31.23;;;;;;;;;;4969628;28;20226;-39
2023/07/12 13:53:16;;;;;;;59.95;40.00;;;;;;;;;;4974606;28;20250;-37
2023/07/12 13:55:43;;;;;;;78.55;61.05;;;;;;;;;;4975816;28;20235;-38
2023/07/12 13:58:13;;;;;;;8.00;3.85;;;;;;;;;;4975549;28;20285;-38
2023/07/12 14:00:41;;;;;;;6.43;4.55;;;;;;;;;;4975700;28;20226;-39
2023/07/12 14:03:28;;;;;;;3.75;2.95;;;;;;;;;;4972046;28;20230;-38
2023/07/12 14:06:01;;;;;;;2.20;1.88;;;;;;;;;;4974750;28;20738;-38
2023/07/12 14:08:28;;;;;;;5.18;2.50;;;;;;;;;;4974179;28;20223;-38
2023/07/12 14:10:58;;;;;;;2.67;2.20;;;;;;;;;;4970945;28;20234;-37
2023/07/12 14:13:25;;;;;;;3.10;1.98;;;;;;;;;;4973386;28;20680;-38
2023/07/12 14:15:52;;;;;;;2.33;1.77;;;;;;;;;;4974479;28;20223;-38
2023/07/12 14:18:19;;;;;;;2.45;1.83;;;;;;;;;;4974530;28;20640;-37
2023/07/12 14:20:50;;;;;;;2.80;2.00;;;;;;;;;;4974403;28;20233;-37
2023/07/12 14:23:21;;;;;;;2.83;2.00;;;;;;;;;;4974821;28;20258;-38
2023/07/12 14:25:48;;;;;;;3.03;2.30;;;;;;;;;;4973792;28;20223;-40
2023/07/12 14:28:15;;;;;;;3.25;2.28;;;;;;;;;;4974445;28;20254;-39
2023/07/12 14:30:43;;;;;;;4.15;2.20;;;;;;;;;;4974450;28;20225;-40
2023/07/12 14:33:38;;;;;;;3.15;2.33;;;;;;;;;;4973291;28;20238;-39
2023/07/12 14:36:05;;;;;;;3.15;2.42;;;;;;;;;;4974780;28;20222;-37
2023/07/12 14:38:33;;;;;;;2.75;1.98;;;;;;;;;;4974560;28;20237;-37
2023/07/12 14:41:02;;;;;;;3.03;2.28;;;;;;;;;;4974697;28;20654;-37
2023/07/12 14:43:29;;;;;;;3.03;2.22;;;;;;;;;;4974705;28;20562;-39
2023/07/12 14:45:57;;;;;;;3.53;2.15;;;;;;;;;;4972895;28;20211;-37
2023/07/12 14:48:24;;;;;;;3.10;2.22;;;;;;;;;;4975135;28;20258;-38
2023/07/12 14:50:51;;;;;;;3.08;1.83;;;;;;;;;;4974495;28;20237;-38
2023/07/12 14:53:22;;;;;;;2.72;2.03;;;;;;;;;;4974768;28;20234;-38
2023/07/12 14:55:49;;;;;;;3.35;2.28;;;;;;;;;;4975219;28;20234;-38
2023/07/12 14:58:17;;;;;;;2.80;2.03;;;;;;;;;;4974200;28;20687;-38
2023/07/12 15:00:48;;;;;;;2.80;1.80;;;;;;;;;;4975041;28;20289;-38